Time;durP1;ratioP1;P1;durP2;ratioP2;P2;SDS_P1;SDS_P2;PMS_P1;PMS_P2;Temp;Humidity;BMP_temperature;BMP_pressure;BME280_temperature;BME280_humidity;BME280_pressure;Samples;Min_cycle;Max_cycle;Signal;HPM_P1;HPM_P2
2022/10/10 00:00:13;;;;;;;12.70;10.80;;;;;;;;;;6357760;27;20051;-64
2022/10/10 00:03:14;;;;;;;15.38;10.15;;;;;;;;;;6355848;27;20047;-68
2022/10/10 00:06:17;;;;;;;16.38;11.23;;;;;;;;;;6355324;27;20047;-66
2022/10/10 00:09:19;;;;;;;18.63;9.88;;;;;;;;;;6356559;27;20059;-67
2022/10/10 00:12:21;;;;;;;11.35;9.43;;;;;;;;;;6357359;27;20052;-66
2022/10/10 00:15:22;;;;;;;12.95;9.50;;;;;;;;;;6354348;27;20089;-67
2022/10/10 00:18:24;;;;;;;19.38;10.30;;;;;;;;;;6359163;27;20100;-67
2022/10/10 00:21:27;;;;;;;13.30;9.60;;;;;;;;;;6357888;27;20327;-66
2022/10/10 00:24:29;;;;;;;12.75;9.20;;;;;;;;;;6359060;27;20339;-66
2022/10/10 00:27:30;;;;;;;16.85;10.15;;;;;;;;;;6366616;27;20047;-67
2022/10/10 00:30:32;;;;;;;11.10;9.25;;;;;;;;;;6356694;27;20223;-67
2022/10/10 00:33:34;;;;;;;11.23;9.43;;;;;;;;;;6356392;27;20043;-66
2022/10/10 00:36:37;;;;;;;12.38;9.38;;;;;;;;;;6354008;27;20039;-66
2022/10/10 00:39:38;;;;;;;11.65;8.82;;;;;;;;;;6357463;27;20043;-65
2022/10/10 00:42:40;;;;;;;12.38;8.93;;;;;;;;;;6361267;27;20048;-67
2022/10/10 00:45:44;;;;;;;11.57;9.05;;;;;;;;;;6358514;27;20105;-67
2022/10/10 00:48:45;;;;;;;;;;;;;;;;;;6359112;27;20055;-66
2022/10/10 00:51:51;;;;;;;12.77;8.57;;;;;;;;;;6355070;27;19945;-66
2022/10/10 00:54:53;;;;;;;13.23;9.18;;;;;;;;;;6357954;27;20051;-66
2022/10/10 00:57:55;;;;;;;17.70;10.10;;;;;;;;;;6359684;27;20107;-68
2022/10/10 01:00:56;;;;;;;12.80;8.75;;;;;;;;;;6358946;27;20054;-65
2022/10/10 01:03:59;;;;;;;14.07;9.27;;;;;;;;;;6351518;27;20055;-65
2022/10/10 01:07:05;;;;;;;11.17;9.00;;;;;;;;;;6352859;27;20351;-66
2022/10/10 01:10:10;;;;;;;14.50;9.73;;;;;;;;;;6361318;27;20051;-66
2022/10/10 01:13:20;;;;;;;14.90;9.85;;;;;;;;;;6357231;27;20058;-65
2022/10/10 01:16:29;;;;;;;13.35;9.55;;;;;;;;;;6358842;27;20062;-65
2022/10/10 01:19:58;;;;;;;15.40;9.63;;;;;;;;;;6357129;27;20347;-66
2022/10/10 01:23:44;;;;;;;13.57;8.90;;;;;;;;;;6357718;27;20035;-66
2022/10/10 01:27:22;;;;;;;14.02;9.32;;;;;;;;;;6255207;28;20050;-65
2022/10/10 01:30:25;;;;;;;13.88;9.80;;;;;;;;;;6252376;28;20076;-66
2022/10/10 01:33:31;;;;;;;12.27;9.82;;;;;;;;;;6255647;28;20381;-66
2022/10/10 01:36:38;;;;;;;12.75;8.88;;;;;;;;;;6253188;28;20174;-64
2022/10/10 01:39:43;;;;;;;16.30;9.77;;;;;;;;;;6251403;28;20046;-66
2022/10/10 01:42:50;;;;;;;14.15;9.57;;;;;;;;;;6254768;28;20053;-69
2022/10/10 01:45:54;;;;;;;13.23;9.13;;;;;;;;;;6258682;28;20061;-65
2022/10/10 01:48:57;;;;;;;13.05;8.98;;;;;;;;;;6260818;28;20052;-64
2022/10/10 01:52:06;;;;;;;13.10;8.18;;;;;;;;;;6254012;28;20104;-63
2022/10/10 01:55:20;;;;;;;11.75;7.20;;;;;;;;;;6252315;28;20293;-64
2022/10/10 01:58:51;;;;;;;11.27;7.55;;;;;;;;;;6255983;28;20296;-63
2022/10/10 02:01:56;;;;;;;12.25;8.07;;;;;;;;;;6301880;27;20050;-64
2022/10/10 02:05:00;;;;;;;14.93;8.00;;;;;;;;;;6359362;27;20055;-66
2022/10/10 02:08:04;;;;;;;11.80;7.72;;;;;;;;;;6354628;28;20063;-65
2022/10/10 02:11:09;;;;;;;10.45;8.00;;;;;;;;;;6354837;28;20051;-64
2022/10/10 02:14:15;;;;;;;9.90;8.02;;;;;;;;;;6355731;27;20165;-65
2022/10/10 02:17:18;;;;;;;12.38;8.55;;;;;;;;;;6362462;27;20273;-63
2022/10/10 02:20:24;;;;;;;12.93;7.82;;;;;;;;;;6360646;27;20096;-63
2022/10/10 02:23:25;;;;;;;10.70;7.65;;;;;;;;;;6363195;27;20283;-65
2022/10/10 02:26:28;;;;;;;13.40;8.13;;;;;;;;;;6363118;27;20085;-65
2022/10/10 02:29:33;;;;;;;12.27;7.97;;;;;;;;;;6365921;27;20076;-65
2022/10/10 02:32:39;;;;;;;13.77;8.25;;;;;;;;;;6356544;27;20489;-66
2022/10/10 02:35:43;;;;;;;9.88;7.75;;;;;;;;;;6356376;27;20055;-66
2022/10/10 02:38:46;;;;;;;10.48;7.65;;;;;;;;;;6359553;27;20044;-67
2022/10/10 02:41:49;;;;;;;11.15;7.30;;;;;;;;;;6359973;27;20055;-67
2022/10/10 02:44:51;;;;;;;8.30;7.20;;;;;;;;;;6359796;27;20058;-66
2022/10/10 02:47:54;;;;;;;12.20;7.57;;;;;;;;;;6358338;27;20394;-67
2022/10/10 02:50:56;;;;;;;11.60;7.10;;;;;;;;;;6360277;27;20060;-67
2022/10/10 02:53:58;;;;;;;11.52;7.10;;;;;;;;;;6362035;27;20062;-65
2022/10/10 02:56:59;;;;;;;11.63;7.78;;;;;;;;;;6355634;27;20278;-65
2022/10/10 03:00:01;;;;;;;9.88;7.28;;;;;;;;;;6357175;27;20047;-64
2022/10/10 03:03:04;;;;;;;10.80;7.43;;;;;;;;;;6358977;27;20056;-64
2022/10/10 03:06:06;;;;;;;12.60;7.60;;;;;;;;;;6356745;27;20088;-64
2022/10/10 03:09:08;;;;;;;10.70;7.93;;;;;;;;;;6353407;27;20477;-64
2022/10/10 03:12:10;;;;;;;9.07;6.97;;;;;;;;;;6356491;27;20044;-64
2022/10/10 03:15:11;;;;;;;9.00;7.07;;;;;;;;;;6355171;27;20105;-66
2022/10/10 03:18:14;;;;;;;10.07;6.55;;;;;;;;;;6356934;27;20092;-65
2022/10/10 03:21:16;;;;;;;9.02;6.47;;;;;;;;;;6352460;27;20055;-65
2022/10/10 03:24:18;;;;;;;14.82;7.32;;;;;;;;;;6356724;27;20054;-65
2022/10/10 03:27:19;;;;;;;8.77;7.10;;;;;;;;;;6355258;27;20396;-64
2022/10/10 03:30:21;;;;;;;9.50;7.43;;;;;;;;;;6354173;27;20060;-64
2022/10/10 03:33:24;;;;;;;11.05;7.75;;;;;;;;;;6353503;27;20106;-65
2022/10/10 03:36:26;;;;;;;10.73;7.38;;;;;;;;;;6354980;27;20242;-64
2022/10/10 03:39:27;;;;;;;10.73;7.05;;;;;;;;;;6354249;27;20229;-65
2022/10/10 03:42:29;;;;;;;8.80;7.10;;;;;;;;;;6353611;27;20039;-64
2022/10/10 03:45:31;;;;;;;10.35;7.20;;;;;;;;;;6354046;27;20157;-63
2022/10/10 03:48:34;;;;;;;10.48;7.35;;;;;;;;;;6357108;27;20035;-64
2022/10/10 03:51:35;;;;;;;14.18;7.88;;;;;;;;;;6349202;27;20055;-65
2022/10/10 03:54:37;;;;;;;11.77;7.68;;;;;;;;;;6354203;27;20071;-65
2022/10/10 03:57:38;;;;;;;11.45;7.65;;;;;;;;;;6355189;27;20047;-66
2022/10/10 04:00:40;;;;;;;9.88;8.65;;;;;;;;;;6354043;27;20099;-65
2022/10/10 04:03:43;;;;;;;10.13;7.72;;;;;;;;;;6352492;27;20055;-66
2022/10/10 04:06:45;;;;;;;11.17;7.23;;;;;;;;;;6358061;27;20048;-65
2022/10/10 04:09:46;;;;;;;10.25;8.32;;;;;;;;;;6352515;27;20055;-65
2022/10/10 04:12:48;;;;;;;15.25;8.90;;;;;;;;;;6357306;27;20116;-65
2022/10/10 04:15:50;;;;;;;11.70;7.95;;;;;;;;;;6355631;27;20055;-65
2022/10/10 04:18:53;;;;;;;9.38;7.93;;;;;;;;;;6354173;27;20122;-65
2022/10/10 04:21:54;;;;;;;10.18;7.82;;;;;;;;;;6356553;27;20121;-65
2022/10/10 04:24:56;;;;;;;10.77;7.93;;;;;;;;;;6359253;27;20245;-65
2022/10/10 04:27:58;;;;;;;13.88;8.38;;;;;;;;;;6359478;27;20052;-64
2022/10/10 04:30:59;;;;;;;11.40;7.93;;;;;;;;;;6356699;27;20052;-64
2022/10/10 04:34:02;;;;;;;11.98;9.05;;;;;;;;;;6349539;27;20224;-65
2022/10/10 04:37:04;;;;;;;10.73;7.93;;;;;;;;;;6352334;27;20274;-64
2022/10/10 04:40:06;;;;;;;11.93;8.60;;;;;;;;;;6354294;27;20054;-64
2022/10/10 04:43:08;;;;;;;11.73;8.65;;;;;;;;;;6355829;27;20051;-64
2022/10/10 04:46:10;;;;;;;11.93;9.45;;;;;;;;;;6356776;27;20382;-65
2022/10/10 04:49:13;;;;;;;12.35;9.15;;;;;;;;;;6355351;27;20069;-64
2022/10/10 04:52:15;;;;;;;15.40;8.27;;;;;;;;;;6354370;27;20055;-64
2022/10/10 04:55:16;;;;;;;11.65;9.73;;;;;;;;;;6354752;27;20499;-65
2022/10/10 04:58:19;;;;;;;11.25;9.02;;;;;;;;;;6353661;27;20274;-65
2022/10/10 05:01:21;;;;;;;13.68;9.32;;;;;;;;;;6353831;27;20294;-65
2022/10/10 05:04:24;;;;;;;14.98;9.45;;;;;;;;;;6349631;27;20054;-64
2022/10/10 05:07:25;;;;;;;14.90;10.23;;;;;;;;;;6354938;27;20047;-65
2022/10/10 05:10:27;;;;;;;10.70;8.55;;;;;;;;;;6353323;27;20495;-65
2022/10/10 05:13:29;;;;;;;14.13;9.98;;;;;;;;;;6363714;27;20138;-64
2022/10/10 05:16:30;;;;;;;14.13;10.10;;;;;;;;;;6352199;27;20103;-64
2022/10/10 05:19:33;;;;;;;13.18;9.93;;;;;;;;;;6359252;27;20051;-66
2022/10/10 05:22:35;;;;;;;14.10;10.27;;;;;;;;;;6352721;27;20136;-69
2022/10/10 05:25:37;;;;;;;14.18;10.00;;;;;;;;;;6349194;27;20087;-70
2022/10/10 05:28:38;;;;;;;13.05;9.63;;;;;;;;;;6351141;27;20047;-69
2022/10/10 05:31:40;;;;;;;14.88;9.32;;;;;;;;;;6352888;27;20059;-68
2022/10/10 05:34:43;;;;;;;14.45;9.32;;;;;;;;;;6350272;27;20055;-68
2022/10/10 05:37:45;;;;;;;12.13;9.07;;;;;;;;;;6353921;27;20055;-67
2022/10/10 05:40:46;;;;;;;14.25;9.30;;;;;;;;;;6351142;27;20477;-67
2022/10/10 05:43:48;;;;;;;16.90;9.25;;;;;;;;;;6350325;27;20205;-67
2022/10/10 05:46:50;;;;;;;14.00;9.02;;;;;;;;;;6349260;27;20043;-69
2022/10/10 05:49:53;;;;;;;15.85;9.40;;;;;;;;;;6349493;27;20044;-69
2022/10/10 05:52:54;;;;;;;17.00;9.30;;;;;;;;;;6355144;27;20059;-69
2022/10/10 05:55:56;;;;;;;14.70;10.35;;;;;;;;;;6351142;27;20442;-67
2022/10/10 05:58:58;;;;;;;46.92;14.13;;;;;;;;;;6350098;27;20055;-69
2022/10/10 06:01:59;;;;;;;26.73;10.65;;;;;;;;;;6348964;27;20055;-68
2022/10/10 06:05:03;;;;;;;12.95;10.02;;;;;;;;;;6354590;28;20058;-68
2022/10/10 06:08:05;;;;;;;12.00;9.07;;;;;;;;;;6349671;27;20236;-69
2022/10/10 06:11:07;;;;;;;14.50;10.60;;;;;;;;;;6345872;28;20051;-69
2022/10/10 06:14:09;;;;;;;15.40;9.52;;;;;;;;;;6354668;28;20070;-69
2022/10/10 06:17:11;;;;;;;15.30;11.23;;;;;;;;;;6354852;28;20054;-70
2022/10/10 06:20:14;;;;;;;28.42;10.52;;;;;;;;;;6351771;28;20086;-69
2022/10/10 06:23:17;;;;;;;19.23;9.95;;;;;;;;;;6351541;28;20138;-69
2022/10/10 06:26:18;;;;;;;21.10;9.18;;;;;;;;;;6348117;28;20122;-69
2022/10/10 06:29:20;;;;;;;76.65;15.57;;;;;;;;;;6352196;28;20079;-69
2022/10/10 06:32:22;;;;;;;13.63;9.32;;;;;;;;;;6349314;28;20123;-69
2022/10/10 06:35:25;;;;;;;39.28;10.55;;;;;;;;;;6349967;28;20051;-69
2022/10/10 06:38:27;;;;;;;18.35;10.02;;;;;;;;;;6352780;28;20270;-69
2022/10/10 06:41:29;;;;;;;15.07;8.93;;;;;;;;;;6351178;28;20043;-69
2022/10/10 06:44:30;;;;;;;20.48;9.70;;;;;;;;;;6350059;28;20104;-68
2022/10/10 06:47:32;;;;;;;17.02;9.43;;;;;;;;;;6349923;28;20058;-68
2022/10/10 06:50:36;;;;;;;11.27;8.73;;;;;;;;;;6352201;28;20067;-68
2022/10/10 06:53:37;;;;;;;14.68;9.38;;;;;;;;;;6350193;28;20100;-68
2022/10/10 06:56:39;;;;;;;11.65;8.85;;;;;;;;;;6352864;28;20050;-69
2022/10/10 06:59:41;;;;;;;18.02;9.40;;;;;;;;;;6354146;27;20054;-70
2022/10/10 07:02:42;;;;;;;12.60;8.48;;;;;;;;;;6357083;27;20063;-69
2022/10/10 07:05:49;;;;;;;12.25;8.90;;;;;;;;;;6357691;27;20378;-69
2022/10/10 07:08:50;;;;;;;10.50;8.00;;;;;;;;;;6358096;27;20074;-69
2022/10/10 07:11:52;;;;;;;14.88;8.82;;;;;;;;;;6356999;27;20059;-69
2022/10/10 07:14:54;;;;;;;14.25;8.40;;;;;;;;;;6362942;27;20062;-69
2022/10/10 07:17:59;;;;;;;13.43;8.50;;;;;;;;;;6357921;27;20410;-69
2022/10/10 07:21:02;;;;;;;15.10;8.25;;;;;;;;;;6354195;27;20059;-68
2022/10/10 07:24:04;;;;;;;14.25;8.25;;;;;;;;;;6356802;27;20039;-69
2022/10/10 07:27:05;;;;;;;12.40;8.80;;;;;;;;;;6357352;27;20058;-69
2022/10/10 07:30:08;;;;;;;12.70;7.90;;;;;;;;;;6356171;27;20051;-71
2022/10/10 07:33:10;;;;;;;13.02;8.48;;;;;;;;;;6354681;27;20281;-69
2022/10/10 07:36:13;;;;;;;15.18;9.35;;;;;;;;;;6358626;27;20047;-68
2022/10/10 07:39:19;;;;;;;12.05;8.15;;;;;;;;;;6355565;27;20144;-68
2022/10/10 07:42:21;;;;;;;12.80;8.38;;;;;;;;;;6357289;27;20389;-67
2022/10/10 07:45:22;;;;;;;16.30;8.25;;;;;;;;;;6352312;27;20047;-68
2022/10/10 07:48:24;;;;;;;16.25;8.05;;;;;;;;;;6358169;27;20107;-68
2022/10/10 07:51:27;;;;;;;447.35;40.35;;;;;;;;;;6358714;27;20122;-69
2022/10/10 07:54:29;;;;;;;25.83;9.60;;;;;;;;;;6352419;27;20322;-68
2022/10/10 07:57:33;;;;;;;12.15;7.88;;;;;;;;;;6355862;27;20197;-69
2022/10/10 08:00:36;;;;;;;15.60;8.32;;;;;;;;;;6353635;27;20047;-68
2022/10/10 08:03:38;;;;;;;13.13;7.70;;;;;;;;;;6355257;27;20079;-70
2022/10/10 08:06:41;;;;;;;10.90;7.03;;;;;;;;;;6358709;27;20055;-68
2022/10/10 08:09:43;;;;;;;12.77;7.25;;;;;;;;;;6356460;27;20047;-68
2022/10/10 08:12:44;;;;;;;12.55;7.85;;;;;;;;;;6354264;27;20277;-70
2022/10/10 08:15:50;;;;;;;14.07;7.97;;;;;;;;;;6357901;27;20108;-68
2022/10/10 08:18:51;;;;;;;12.38;7.82;;;;;;;;;;6355876;27;20051;-68
2022/10/10 08:21:55;;;;;;;11.23;7.38;;;;;;;;;;6354695;27;20227;-68
2022/10/10 08:24:57;;;;;;;13.77;7.82;;;;;;;;;;6355502;27;20059;-68
2022/10/10 08:27:58;;;;;;;17.98;8.18;;;;;;;;;;6353319;27;20235;-68
2022/10/10 08:31:00;;;;;;;16.00;7.68;;;;;;;;;;6356085;27;20059;-68
2022/10/10 08:34:01;;;;;;;23.17;9.45;;;;;;;;;;6353158;27;20323;-68
2022/10/10 08:37:04;;;;;;;13.13;8.63;;;;;;;;;;6355832;27;20120;-68
2022/10/10 08:40:08;;;;;;;24.90;9.85;;;;;;;;;;6357143;27;20051;-68
2022/10/10 08:43:12;;;;;;;23.20;9.35;;;;;;;;;;6355137;27;20046;-68
2022/10/10 08:46:18;;;;;;;28.98;9.40;;;;;;;;;;6352450;27;20047;-69
2022/10/10 08:49:24;;;;;;;32.17;9.13;;;;;;;;;;6352922;27;20058;-70
2022/10/10 08:52:32;;;;;;;42.00;10.93;;;;;;;;;;6355080;27;20109;-69
2022/10/10 08:55:37;;;;;;;16.30;8.90;;;;;;;;;;6357363;27;20077;-69
2022/10/10 08:58:41;;;;;;;61.00;11.23;;;;;;;;;;6356757;27;20327;-68
2022/10/10 09:01:43;;;;;;;31.80;10.48;;;;;;;;;;6353975;27;20238;-70
2022/10/10 09:04:45;;;;;;;25.17;9.30;;;;;;;;;;6358113;27;20039;-71
2022/10/10 09:07:59;;;;;;;18.75;8.48;;;;;;;;;;6351603;27;20060;-70
2022/10/10 09:11:01;;;;;;;;;;;;;;;;;;6353794;27;20316;-69
2022/10/10 09:14:13;;;;;;;49.03;10.75;;;;;;;;;;6354718;27;19930;-70
2022/10/10 09:17:20;;;;;;;22.77;9.70;;;;;;;;;;6354196;27;20678;-69
2022/10/10 09:20:32;;;;;;;15.15;8.35;;;;;;;;;;6351562;27;20145;-68
2022/10/10 09:23:41;;;;;;;22.40;11.77;;;;;;;;;;6352735;27;20059;-71
2022/10/10 09:26:45;;;;;;;21.80;12.20;;;;;;;;;;6356792;27;20043;-69
2022/10/10 09:29:50;;;;;;;15.25;9.55;;;;;;;;;;6362812;27;20055;-69
2022/10/10 09:32:54;;;;;;;15.73;9.18;;;;;;;;;;6360527;27;20224;-69
2022/10/10 09:35:58;;;;;;;15.30;7.97;;;;;;;;;;6359576;27;20418;-68
2022/10/10 09:39:04;;;;;;;11.45;8.15;;;;;;;;;;6355719;27;20051;-69
2022/10/10 09:42:11;;;;;;;14.50;8.68;;;;;;;;;;6356760;27;20397;-70
2022/10/10 09:45:18;;;;;;;23.27;8.80;;;;;;;;;;6353782;27;20055;-69
2022/10/10 09:48:20;;;;;;;15.18;8.27;;;;;;;;;;6354752;27;20323;-68
2022/10/10 09:51:21;;;;;;;18.75;8.68;;;;;;;;;;6352896;27;20232;-69
2022/10/10 09:54:25;;;;;;;24.58;9.15;;;;;;;;;;6349911;27;20142;-69
2022/10/10 09:57:30;;;;;;;50.63;10.77;;;;;;;;;;6357175;28;20092;-69
2022/10/10 10:00:35;;;;;;;17.90;8.05;;;;;;;;;;6356147;27;20034;-69
2022/10/10 10:03:37;;;;;;;24.88;9.32;;;;;;;;;;6354787;27;20076;-69
2022/10/10 10:06:39;;;;;;;11.02;7.88;;;;;;;;;;6352070;27;20050;-69
2022/10/10 10:09:47;;;;;;;11.68;8.27;;;;;;;;;;6352963;27;20055;-67
2022/10/10 10:12:49;;;;;;;9.43;7.78;;;;;;;;;;6353962;28;20266;-69
2022/10/10 10:15:56;;;;;;;9.02;7.40;;;;;;;;;;6352527;28;20329;-70
2022/10/10 10:18:58;;;;;;;11.20;7.18;;;;;;;;;;6352171;28;20059;-71
2022/10/10 10:22:00;;;;;;;14.00;8.60;;;;;;;;;;6349771;28;20100;-70
2022/10/10 10:25:31;;;;;;;13.27;8.00;;;;;;;;;;6356301;28;20059;-68
2022/10/10 10:28:40;;;;;;;20.67;11.13;;;;;;;;;;6350474;28;20180;-68
2022/10/10 10:31:54;;;;;;;31.90;19.02;;;;;;;;;;6351838;28;20063;-69
2022/10/10 10:35:04;;;;;;;27.38;14.93;;;;;;;;;;6345996;27;20092;-69
2022/10/10 10:38:14;;;;;;;43.38;12.82;;;;;;;;;;6361204;27;20152;-69
2022/10/10 10:41:25;;;;;;;15.85;8.80;;;;;;;;;;6355182;27;20102;-70
2022/10/10 10:44:35;;;;;;;12.55;8.40;;;;;;;;;;6356022;27;20055;-70
2022/10/10 10:47:45;;;;;;;12.05;8.45;;;;;;;;;;6355610;27;20159;-70
2022/10/10 10:50:50;;;;;;;13.88;8.50;;;;;;;;;;6356843;27;20525;-68
2022/10/10 10:53:56;;;;;;;13.98;8.48;;;;;;;;;;6355368;27;20087;-70
2022/10/10 10:57:02;;;;;;;13.90;7.70;;;;;;;;;;6354169;27;20055;-71
2022/10/10 11:00:09;;;;;;;13.85;8.10;;;;;;;;;;6354112;27;20052;-70
2022/10/10 11:03:36;;;;;;;9.73;7.03;;;;;;;;;;6356952;27;20048;-68
2022/10/10 11:07:00;;;;;;;15.95;7.82;;;;;;;;;;6357870;27;20062;-69
2022/10/10 11:10:11;;;;;;;16.63;8.63;;;;;;;;;;6354419;27;20112;-70
2022/10/10 11:13:18;;;;;;;113.95;77.70;;;;;;;;;;6356215;27;20780;-64
2022/10/10 11:16:22;;;;;;;112.55;71.80;;;;;;;;;;6358364;27;20055;-61
2022/10/10 11:19:28;;;;;;;195.32;117.80;;;;;;;;;;6354219;27;20047;-61
2022/10/10 11:22:32;;;;;;;279.65;178.88;;;;;;;;;;6355269;27;20062;-60
2022/10/10 11:25:36;;;;;;;154.48;97.28;;;;;;;;;;6353135;27;20335;-62
2022/10/10 11:28:41;;;;;;;51.78;31.33;;;;;;;;;;6353546;27;20415;-62
2022/10/10 11:31:45;;;;;;;24.05;15.52;;;;;;;;;;6356198;27;20047;-61
2022/10/10 11:35:01;;;;;;;10.52;7.32;;;;;;;;;;6354903;27;20205;-65
2022/10/10 11:38:10;;;;;;;9.00;5.82;;;;;;;;;;6351900;27;20093;-63
2022/10/10 11:41:16;;;;;;;7.85;4.97;;;;;;;;;;6354920;27;20043;-62
2022/10/10 11:44:22;;;;;;;9.50;5.55;;;;;;;;;;6354809;27;20066;-65
2022/10/10 11:47:27;;;;;;;5.45;4.60;;;;;;;;;;6353435;27;20069;-64
2022/10/10 11:50:31;;;;;;;9.38;4.70;;;;;;;;;;6356430;27;20221;-64
2022/10/10 11:53:38;;;;;;;14.23;5.95;;;;;;;;;;6353957;27;20164;-65
2022/10/10 11:56:41;;;;;;;10.65;5.82;;;;;;;;;;6354532;27;20060;-64
2022/10/10 11:59:46;;;;;;;9.30;6.22;;;;;;;;;;6353826;27;20486;-63
2022/10/10 12:02:48;;;;;;;205.82;123.78;;;;;;;;;;6359054;27;20051;-61
2022/10/10 12:05:53;;;;;;;176.02;108.85;;;;;;;;;;6357578;27;20075;-62
2022/10/10 12:08:59;;;;;;;56.08;37.05;;;;;;;;;;6357924;27;20060;-61
2022/10/10 12:12:03;;;;;;;75.00;50.00;;;;;;;;;;6359800;27;20307;-61
2022/10/10 12:15:09;;;;;;;54.05;34.65;;;;;;;;;;6357663;27;20051;-64
2022/10/10 12:18:23;;;;;;;304.30;172.35;;;;;;;;;;6355020;27;20050;-64
2022/10/10 12:21:26;;;;;;;42.08;22.98;;;;;;;;;;6359042;27;20307;-64
2022/10/10 12:24:28;;;;;;;14.35;7.85;;;;;;;;;;6357711;27;20059;-64
2022/10/10 12:27:43;;;;;;;29.93;18.13;;;;;;;;;;6358965;27;20136;-63
2022/10/10 12:31:26;;;;;;;19.75;10.88;;;;;;;;;;6354980;27;20112;-62
2022/10/10 12:34:41;;;;;;;19.48;7.15;;;;;;;;;;6359851;27;20254;-63
2022/10/10 12:38:17;;;;;;;16.58;6.85;;;;;;;;;;6357883;27;20043;-62
2022/10/10 12:41:19;;;;;;;11.00;5.60;;;;;;;;;;6355488;27;20219;-63
2022/10/10 12:44:22;;;;;;;14.23;8.07;;;;;;;;;;6356576;27;20331;-64
2022/10/10 12:47:43;;;;;;;14.48;10.38;;;;;;;;;;6356387;27;20069;-63
2022/10/10 12:50:56;;;;;;;11.68;7.05;;;;;;;;;;6356737;27;20109;-63
2022/10/10 12:53:59;;;;;;;9.20;5.63;;;;;;;;;;6355612;27;20043;-63
2022/10/10 12:57:09;;;;;;;17.17;6.15;;;;;;;;;;6361274;27;20092;-65
2022/10/10 13:00:16;;;;;;;9.57;5.05;;;;;;;;;;6355291;27;20055;-64
2022/10/10 13:03:22;;;;;;;26.52;6.78;;;;;;;;;;6358468;27;20055;-65
2022/10/10 13:06:29;;;;;;;51.38;8.52;;;;;;;;;;6355136;27;20085;-65
2022/10/10 13:09:33;;;;;;;15.90;5.70;;;;;;;;;;6356685;27;20108;-66
2022/10/10 13:12:35;;;;;;;14.38;4.35;;;;;;;;;;6358424;27;20047;-65
2022/10/10 13:15:37;;;;;;;17.75;5.32;;;;;;;;;;6356790;27;20051;-66
2022/10/10 13:18:41;;;;;;;7.93;4.20;;;;;;;;;;6351337;27;20051;-65
2022/10/10 13:21:43;;;;;;;9.18;4.40;;;;;;;;;;6361019;27;20083;-66
2022/10/10 13:24:45;;;;;;;59.15;8.50;;;;;;;;;;6360934;27;20111;-66
2022/10/10 13:27:47;;;;;;;27.65;6.93;;;;;;;;;;6359171;27;20039;-66
2022/10/10 13:30:49;;;;;;;21.42;4.70;;;;;;;;;;6363813;27;20062;-66
2022/10/10 13:33:57;;;;;;;11.90;4.85;;;;;;;;;;6348904;27;20049;-66
2022/10/10 13:37:00;;;;;;;10.35;4.78;;;;;;;;;;6356974;27;20067;-65
2022/10/10 13:40:03;;;;;;;14.73;5.35;;;;;;;;;;6350593;27;20055;-66
2022/10/10 13:43:05;;;;;;;8.02;4.65;;;;;;;;;;6359145;27;20039;-66
2022/10/10 13:46:20;;;;;;;9.68;5.22;;;;;;;;;;6353262;27;20056;-66
2022/10/10 13:49:25;;;;;;;11.18;5.45;;;;;;;;;;6351734;27;20127;-66
2022/10/10 13:52:26;;;;;;;10.00;5.53;;;;;;;;;;6355738;27;20052;-65
2022/10/10 13:55:34;;;;;;;11.05;4.93;;;;;;;;;;6353212;27;20044;-66
2022/10/10 13:58:41;;;;;;;8.13;4.47;;;;;;;;;;6355547;27;20134;-66
2022/10/10 14:01:44;;;;;;;6.35;4.53;;;;;;;;;;6354510;27;20232;-66
2022/10/10 14:04:49;;;;;;;7.53;4.65;;;;;;;;;;6356391;27;20047;-69
2022/10/10 14:07:50;;;;;;;11.05;5.32;;;;;;;;;;6353637;28;20055;-65
2022/10/10 14:10:57;;;;;;;7.70;4.63;;;;;;;;;;6355070;27;20054;-66
2022/10/10 14:14:03;;;;;;;11.68;4.90;;;;;;;;;;6357090;28;20118;-66
2022/10/10 14:17:05;;;;;;;8.52;5.68;;;;;;;;;;6354916;28;20228;-65
2022/10/10 14:20:12;;;;;;;8.85;4.88;;;;;;;;;;6354378;28;20058;-65
2022/10/10 14:23:14;;;;;;;8.63;4.70;;;;;;;;;;6356084;28;20100;-66
2022/10/10 14:26:18;;;;;;;81.65;9.98;;;;;;;;;;6357568;28;20391;-66
2022/10/10 14:29:20;;;;;;;37.10;7.28;;;;;;;;;;6358540;28;20101;-65
2022/10/10 14:32:22;;;;;;;10.98;4.40;;;;;;;;;;6358945;28;20265;-67
2022/10/10 14:35:25;;;;;;;9.10;4.63;;;;;;;;;;6356106;28;20104;-66
2022/10/10 14:38:27;;;;;;;11.52;5.20;;;;;;;;;;6359089;28;20133;-64
2022/10/10 14:41:29;;;;;;;8.73;4.93;;;;;;;;;;6356200;28;20068;-63
2022/10/10 14:44:31;;;;;;;9.30;4.70;;;;;;;;;;6355423;28;20062;-63
2022/10/10 14:47:32;;;;;;;7.03;4.50;;;;;;;;;;6358410;28;20097;-66
2022/10/10 14:50:37;;;;;;;7.35;4.90;;;;;;;;;;6355699;28;20043;-65
2022/10/10 14:53:39;;;;;;;7.80;4.57;;;;;;;;;;6356651;28;20047;-65
2022/10/10 14:56:41;;;;;;;6.90;4.72;;;;;;;;;;6354535;28;20088;-63
2022/10/10 14:59:43;;;;;;;7.50;4.70;;;;;;;;;;6353997;28;20089;-64
2022/10/10 15:02:45;;;;;;;8.80;4.40;;;;;;;;;;6354119;28;20062;-67
2022/10/10 15:05:48;;;;;;;9.90;5.53;;;;;;;;;;6352091;28;20188;-66
2022/10/10 15:08:50;;;;;;;9.10;5.45;;;;;;;;;;6356248;28;20239;-66
2022/10/10 15:11:52;;;;;;;8.25;4.70;;;;;;;;;;6352933;28;20050;-66
2022/10/10 15:14:53;;;;;;;9.75;5.63;;;;;;;;;;6358751;28;20044;-66
2022/10/10 15:17:57;;;;;;;7.07;5.35;;;;;;;;;;6356177;28;20051;-65
2022/10/10 15:21:00;;;;;;;11.18;7.68;;;;;;;;;;6354090;27;20326;-63
2022/10/10 15:24:01;;;;;;;23.17;14.20;;;;;;;;;;6360167;27;20089;-64
2022/10/10 15:27:03;;;;;;;15.23;9.43;;;;;;;;;;6361893;27;20066;-65
2022/10/10 15:30:06;;;;;;;8.75;5.43;;;;;;;;;;6366892;27;20081;-65
2022/10/10 15:33:08;;;;;;;5.95;4.25;;;;;;;;;;6361017;27;20052;-65
2022/10/10 15:36:11;;;;;;;6.10;4.60;;;;;;;;;;6356996;27;20135;-65
2022/10/10 15:39:13;;;;;;;9.50;4.90;;;;;;;;;;6358700;27;20055;-66
2022/10/10 15:42:15;;;;;;;9.65;6.43;;;;;;;;;;6351561;27;20051;-66
2022/10/10 15:45:17;;;;;;;10.48;5.28;;;;;;;;;;6354157;27;20745;-67
2022/10/10 15:48:20;;;;;;;8.88;4.75;;;;;;;;;;6353555;27;20305;-67
2022/10/10 15:51:23;;;;;;;8.05;4.72;;;;;;;;;;6353793;27;20055;-67
2022/10/10 15:54:25;;;;;;;9.77;5.07;;;;;;;;;;6353541;27;20043;-67
2022/10/10 15:57:26;;;;;;;7.75;4.63;;;;;;;;;;6356074;27;20047;-68
2022/10/10 16:00:28;;;;;;;9.10;5.07;;;;;;;;;;6355558;27;20323;-67
2022/10/10 16:03:30;;;;;;;9.35;4.72;;;;;;;;;;6355637;27;20056;-67
2022/10/10 16:06:33;;;;;;;9.50;5.13;;;;;;;;;;6356986;27;20043;-65
2022/10/10 16:09:35;;;;;;;7.55;4.75;;;;;;;;;;6354142;27;20055;-66
2022/10/10 16:12:36;;;;;;;8.25;4.60;;;;;;;;;;6355559;27;20051;-64
2022/10/10 16:15:38;;;;;;;7.10;5.35;;;;;;;;;;6354327;27;20074;-66
2022/10/10 16:18:41;;;;;;;8.30;4.65;;;;;;;;;;6354901;27;20126;-65
2022/10/10 16:21:44;;;;;;;8.55;5.10;;;;;;;;;;6353415;27;20044;-65
2022/10/10 16:24:46;;;;;;;7.55;5.10;;;;;;;;;;6354103;27;20054;-65
2022/10/10 16:27:48;;;;;;;9.77;4.93;;;;;;;;;;6356388;27;20055;-64
2022/10/10 16:30:49;;;;;;;8.82;4.82;;;;;;;;;;6355871;27;20364;-64
2022/10/10 16:33:51;;;;;;;7.45;5.43;;;;;;;;;;6353682;27;20108;-64
2022/10/10 16:36:54;;;;;;;7.18;5.15;;;;;;;;;;6351082;27;20331;-63
2022/10/10 16:39:56;;;;;;;6.78;4.43;;;;;;;;;;6351726;27;20055;-63
2022/10/10 16:42:57;;;;;;;8.90;4.82;;;;;;;;;;6350018;27;20323;-64
2022/10/10 16:46:01;;;;;;;7.30;4.78;;;;;;;;;;6352809;27;20043;-63
2022/10/10 16:49:03;;;;;;;;;;;;;;;;;;6352533;27;20293;-63
2022/10/10 16:52:06;;;;;;;8.15;5.75;;;;;;;;;;6353974;27;19924;-63
2022/10/10 16:55:10;;;;;;;10.77;5.90;;;;;;;;;;6352301;27;20063;-63
2022/10/10 16:58:11;;;;;;;9.57;5.53;;;;;;;;;;6353082;27;20050;-63
2022/10/10 17:01:15;;;;;;;8.48;6.07;;;;;;;;;;6355346;27;20051;-63
2022/10/10 17:04:16;;;;;;;;;;;;;;;;;;6355082;27;20347;-64
2022/10/10 17:07:19;;;;;;;8.15;5.90;;;;;;;;;;6353652;27;19996;-63
2022/10/10 17:10:21;;;;;;;9.20;6.43;;;;;;;;;;6352969;27;20051;-63
2022/10/10 17:13:23;;;;;;;9.05;6.15;;;;;;;;;;6353845;27;20055;-62
2022/10/10 17:16:28;;;;;;;8.95;6.82;;;;;;;;;;6354681;27;20047;-63
2022/10/10 17:19:30;;;;;;;10.63;7.68;;;;;;;;;;6352856;27;20054;-63
2022/10/10 17:22:33;;;;;;;10.80;7.18;;;;;;;;;;6348634;27;20052;-62
2022/10/10 17:25:35;;;;;;;8.65;6.53;;;;;;;;;;6353897;27;20051;-62
2022/10/10 17:28:37;;;;;;;11.73;7.40;;;;;;;;;;6353852;27;20204;-63
2022/10/10 17:31:39;;;;;;;9.05;6.85;;;;;;;;;;6355339;27;20059;-63
2022/10/10 17:34:41;;;;;;;12.63;8.25;;;;;;;;;;6351992;27;20334;-63
2022/10/10 17:37:44;;;;;;;15.80;7.53;;;;;;;;;;6354907;27;20327;-63
2022/10/10 17:40:56;;;;;;;10.95;7.97;;;;;;;;;;6357258;27;20059;-63
2022/10/10 17:43:57;;;;;;;13.35;8.07;;;;;;;;;;6352374;27;20052;-63
2022/10/10 17:46:59;;;;;;;17.15;8.30;;;;;;;;;;6353971;27;20050;-63
2022/10/10 17:50:00;;;;;;;11.13;7.53;;;;;;;;;;6352725;27;20047;-63
2022/10/10 17:53:04;;;;;;;10.43;7.20;;;;;;;;;;6351555;27;20052;-64
2022/10/10 17:56:14;;;;;;;11.73;7.53;;;;;;;;;;6351050;27;20338;-63
2022/10/10 17:59:16;;;;;;;14.55;8.63;;;;;;;;;;6348749;27;20068;-64
2022/10/10 18:02:18;;;;;;;13.70;7.78;;;;;;;;;;6349270;28;20048;-64
2022/10/10 18:05:20;;;;;;;10.38;7.78;;;;;;;;;;6359412;27;20055;-67
2022/10/10 18:08:23;;;;;;;12.93;7.82;;;;;;;;;;6352604;27;20131;-65